Terminal Aerodrome Forecast
Issued by NWS

Home | Current Version | Previous Version | Graphics & Text | Print | Product List | Glossary On
Versions: 1 2 3 4 5 6 7 8 9 10 11 12 13 14 15 16 17 18 19 20 21 22 23 24
000
FTUS41 KCLE 221100
TAFFDY
TAF
KFDY 221139Z 2212/2312 34006KT P6SM OVC018
     FM221500 36008KT P6SM OVC025
     FM221700 02008KT P6SM BKN035
     FM222000 02008KT P6SM SCT035
     FM222300 02004KT P6SM SKC=

USA.gov is the U.S. government's official web portal to all federal, state and local government web resources and services.